createdAt,value
2022-08-12T00:02:21.326Z,11.00
2022-08-12T00:05:11.627Z,9.05
2022-08-12T00:08:04.416Z,10.35
2022-08-12T00:10:51.572Z,8.25
2022-08-12T00:13:40.324Z,12.88
2022-08-12T00:16:28.548Z,6.95
2022-08-12T00:19:16.610Z,10.02
2022-08-12T00:22:08.340Z,8.05
2022-08-12T00:24:55.365Z,7.07
2022-08-12T00:27:44.230Z,9.77
2022-08-12T00:30:33.330Z,8.88
2022-08-12T00:33:23.543Z,10.73
2022-08-12T00:36:34.803Z,11.05
2022-08-12T00:39:25.739Z,8.30
2022-08-12T00:42:15.467Z,9.73
2022-08-12T00:44:48.332Z,18.90
2022-08-12T00:47:24.259Z,10.75
2022-08-12T00:49:58.243Z,6.20
2022-08-12T00:52:28.986Z,8.50
2022-08-12T00:55:07.070Z,5.90
2022-08-12T00:57:37.555Z,6.72
2022-08-12T01:00:23.217Z,8.43
2022-08-12T01:02:59.503Z,7.70
2022-08-12T01:05:46.582Z,7.85
2022-08-12T01:08:35.405Z,7.95
2022-08-12T01:11:25.380Z,6.57
2022-08-12T01:13:55.839Z,7.38
2022-08-12T01:16:28.136Z,7.22
2022-08-12T01:19:03.883Z,7.85
2022-08-12T01:21:46.958Z,7.40
2022-08-12T01:25:00.996Z,6.63
2022-08-12T01:27:55.433Z,7.43
2022-08-12T01:30:29.494Z,6.10
2022-08-12T01:33:03.344Z,7.70
2022-08-12T01:36:07.942Z,7.67
2022-08-12T01:38:40.816Z,6.38
2022-08-12T01:41:16.467Z,6.38
2022-08-12T01:43:47.924Z,10.27
2022-08-12T01:47:11.321Z,5.88
2022-08-12T01:49:57.539Z,6.32
2022-08-12T01:52:55.833Z,7.25
2022-08-12T01:55:35.990Z,8.60
2022-08-12T01:58:21.378Z,8.43
2022-08-12T02:01:11.136Z,5.85
2022-08-12T02:04:33.449Z,6.85
2022-08-12T02:08:04.818Z,9.98
2022-08-12T02:10:58.693Z,11.35
2022-08-12T02:14:27.132Z,9.40
2022-08-12T02:17:55.929Z,12.93
2022-08-12T02:20:52.207Z,7.25
2022-08-12T02:23:29.294Z,7.30
2022-08-12T02:26:01.602Z,10.45
2022-08-12T02:31:17.372Z,7.18
2022-08-12T02:36:34.088Z,13.70
2022-08-12T02:39:04.387Z,7.90
2022-08-12T02:41:39.547Z,7.15
2022-08-12T02:44:15.404Z,6.97
2022-08-12T02:46:52.487Z,8.75
2022-08-12T02:49:35.422Z,7.22
2022-08-12T02:52:10.457Z,7.68
2022-08-12T02:54:47.675Z,9.32
2022-08-12T02:57:22.028Z,8.93
2022-08-12T03:00:04.116Z,9.57
2022-08-12T03:02:57.344Z,8.27
2022-08-12T03:05:38.641Z,7.85
2022-08-12T03:11:17.855Z,6.53
2022-08-12T03:13:53.897Z,5.78
2022-08-12T03:16:25.827Z,8.02
2022-08-12T03:18:57.746Z,8.55
2022-08-12T03:21:55.386Z,4.57
2022-08-12T03:24:19.144Z,6.95
2022-08-12T03:26:55.324Z,7.10
2022-08-12T03:29:43.438Z,7.20
2022-08-12T03:32:49.298Z,8.52
2022-08-12T03:35:40.218Z,7.90
2022-08-12T03:38:14.702Z,6.95
2022-08-12T03:41:28.047Z,10.85
2022-08-12T03:44:47.876Z,10.68
2022-08-12T03:48:01.214Z,14.07
2022-08-12T03:50:52.966Z,7.60
2022-08-12T03:53:52.590Z,7.32
2022-08-12T03:56:41.628Z,6.25
2022-08-12T03:59:34.757Z,4.72
2022-08-12T04:02:04.269Z,7.63
2022-08-12T04:04:35.657Z,6.32
2022-08-12T04:07:08.305Z,6.78
2022-08-12T04:09:42.645Z,7.53
2022-08-12T04:12:33.484Z,6.10
2022-08-12T04:15:03.439Z,5.88
2022-08-12T04:17:33.340Z,6.95
2022-08-12T04:20:02.097Z,10.80
2022-08-12T04:22:46.025Z,8.52
2022-08-12T04:25:18.769Z,8.30
2022-08-12T04:27:48.366Z,8.48
2022-08-12T04:30:32.063Z,7.75
2022-08-12T04:33:03.481Z,6.18
2022-08-12T04:35:34.866Z,5.70
2022-08-12T04:38:05.298Z,7.07
2022-08-12T04:40:38.490Z,7.60
2022-08-12T04:44:01.158Z,9.77
2022-08-12T04:46:04.594Z,10.93
2022-08-12T04:48:37.868Z,7.85
2022-08-12T04:51:08.484Z,11.35
2022-08-12T04:53:38.513Z,7.28
2022-08-12T04:56:08.841Z,6.15
2022-08-12T04:58:36.757Z,11.13
2022-08-12T05:01:06.440Z,10.15
2022-08-12T05:03:46.025Z,13.57
2022-08-12T05:06:26.766Z,11.80
2022-08-12T05:08:56.580Z,8.05
2022-08-12T05:11:27.610Z,11.10
2022-08-12T05:14:08.687Z,7.60
2022-08-12T05:16:37.543Z,6.70
2022-08-12T05:19:12.851Z,10.13
2022-08-12T05:21:46.983Z,9.75
2022-08-12T05:24:18.582Z,8.45
2022-08-12T05:26:50.026Z,6.65
2022-08-12T05:30:06.301Z,12.10
2022-08-12T05:32:13.907Z,9.25
2022-08-12T05:34:45.308Z,8.15
2022-08-12T05:37:16.157Z,7.55
2022-08-12T05:39:45.643Z,9.77
2022-08-12T05:42:17.185Z,11.70
2022-08-12T05:44:47.692Z,9.02
2022-08-12T05:47:18.373Z,12.13
2022-08-12T05:49:49.879Z,9.52
2022-08-12T05:52:20.877Z,7.40
2022-08-12T05:54:57.430Z,13.93
2022-08-12T05:57:27.858Z,14.73
2022-08-12T05:59:57.859Z,16.05
2022-08-12T06:02:26.889Z,12.18
2022-08-12T06:05:08.986Z,8.63
2022-08-12T06:08:00.592Z,10.32
2022-08-12T06:10:32.308Z,11.27
2022-08-12T06:13:04.503Z,7.85
2022-08-12T06:15:43.086Z,12.10
2022-08-12T06:18:16.080Z,9.57
2022-08-12T06:20:52.611Z,10.57
2022-08-12T06:23:22.656Z,8.10
2022-08-12T06:25:53.961Z,15.73
2022-08-12T06:28:24.238Z,9.07
2022-08-12T06:31:22.611Z,7.05
2022-08-12T06:33:57.678Z,10.60
2022-08-12T06:36:33.414Z,11.03
2022-08-12T06:39:03.450Z,7.38
2022-08-12T06:42:05.118Z,10.77
2022-08-12T06:44:42.730Z,10.93
2022-08-12T06:47:14.120Z,13.88
2022-08-12T06:49:43.821Z,10.75
2022-08-12T06:52:13.809Z,11.38
2022-08-12T06:54:48.573Z,11.82
2022-08-12T06:58:06.487Z,9.57
2022-08-12T07:00:11.660Z,8.95
2022-08-12T07:02:44.249Z,7.85
2022-08-12T07:05:13.603Z,9.07
2022-08-12T07:07:42.025Z,6.55
2022-08-12T07:10:15.320Z,13.23
2022-08-12T07:12:42.688Z,10.88
2022-08-12T07:15:14.509Z,10.13
2022-08-12T07:17:43.950Z,6.97
2022-08-12T07:23:04.559Z,11.13
2022-08-12T07:25:40.901Z,18.75
2022-08-12T07:28:16.407Z,12.05
2022-08-12T07:30:59.561Z,12.30
2022-08-12T07:33:31.819Z,20.23
2022-08-12T07:36:05.374Z,12.38
2022-08-12T07:38:36.122Z,8.03
2022-08-12T07:41:20.117Z,9.55
2022-08-12T07:44:07.069Z,20.93
2022-08-12T07:46:39.010Z,6.22
2022-08-12T07:49:16.147Z,8.48
2022-08-12T07:51:47.049Z,11.10
2022-08-12T07:54:14.667Z,13.20
2022-08-12T07:56:44.860Z,9.73
2022-08-12T07:59:17.167Z,6.82
2022-08-12T08:01:45.539Z,11.02
2022-08-12T08:04:37.001Z,12.27
2022-08-12T08:07:11.033Z,7.55
2022-08-12T08:09:41.732Z,7.35
2022-08-12T08:12:31.951Z,8.45
2022-08-12T08:15:03.494Z,16.60
2022-08-12T08:17:32.530Z,14.88
2022-08-12T08:20:03.788Z,13.73
2022-08-12T08:22:43.385Z,6.90
2022-08-12T08:25:35.206Z,19.23
2022-08-12T08:28:09.402Z,8.73
2022-08-12T08:30:43.518Z,6.50
2022-08-12T08:33:22.611Z,5.63
2022-08-12T08:35:54.284Z,13.60
2022-08-12T08:38:33.343Z,9.50
2022-08-12T08:42:16.941Z,7.50
2022-08-12T08:44:15.426Z,6.00
2022-08-12T08:46:47.845Z,9.05
2022-08-12T08:49:21.757Z,9.77
2022-08-12T08:51:53.998Z,7.90
2022-08-12T08:54:27.217Z,8.30
2022-08-12T08:56:57.133Z,6.90
2022-08-12T08:59:25.616Z,12.30
2022-08-12T09:01:55.233Z,12.18
2022-08-12T09:05:13.858Z,5.20
2022-08-12T09:07:51.891Z,5.78
2022-08-12T09:10:23.306Z,8.57
2022-08-12T09:16:12.418Z,9.65
2022-08-12T09:18:46.494Z,3.97
2022-08-12T09:21:18.239Z,3.53
2022-08-12T09:24:00.887Z,5.97
2022-08-12T09:26:46.211Z,6.90
2022-08-12T09:30:11.291Z,5.55
2022-08-12T09:32:31.336Z,6.15
2022-08-12T09:35:18.454Z,3.13
2022-08-12T09:38:25.595Z,6.93
2022-08-12T09:42:08.517Z,9.27
2022-08-12T09:44:38.246Z,9.32
2022-08-12T09:47:03.053Z,8.40
2022-08-12T09:49:42.825Z,6.90
2022-08-12T09:52:18.600Z,3.55
2022-08-12T09:54:53.887Z,6.50
2022-08-12T09:58:07.854Z,8.02
2022-08-12T10:00:29.209Z,6.32
2022-08-12T10:03:31.796Z,5.10
2022-08-12T10:06:27.409Z,6.15
2022-08-12T10:08:54.176Z,3.60
2022-08-12T10:12:11.935Z,4.65
2022-08-12T10:14:38.405Z,10.05
2022-08-12T10:17:12.427Z,7.63
2022-08-12T10:19:51.576Z,4.10
2022-08-12T10:22:39.028Z,5.88
2022-08-12T10:26:35.749Z,5.13
2022-08-12T10:28:42.092Z,6.15
2022-08-12T10:31:59.476Z,5.53
2022-08-12T10:34:27.339Z,6.72
2022-08-12T10:37:23.404Z,3.10
2022-08-12T10:40:01.131Z,5.88
2022-08-12T10:43:00.566Z,6.50
2022-08-12T10:45:38.038Z,7.72
2022-08-12T10:48:21.421Z,4.72
2022-08-12T10:51:03.399Z,5.45
2022-08-12T10:54:00.831Z,3.50
2022-08-12T10:56:39.775Z,4.72
2022-08-12T10:59:13.426Z,6.03
2022-08-12T11:04:14.699Z,4.85
2022-08-12T11:04:49.042Z,5.15
2022-08-12T11:08:36.510Z,3.72
2022-08-12T11:13:00.390Z,4.90
2022-08-12T11:16:03.023Z,3.45
2022-08-12T11:18:20.006Z,5.28
2022-08-12T11:20:52.968Z,3.13
2022-08-12T11:23:37.178Z,3.83
2022-08-12T11:26:09.461Z,5.05
2022-08-12T11:28:40.071Z,4.13
2022-08-12T11:31:14.434Z,4.88
2022-08-12T11:34:04.503Z,4.95
2022-08-12T11:36:39.168Z,2.88
2022-08-12T11:39:12.521Z,5.60
2022-08-12T11:41:43.035Z,2.55
2022-08-12T11:44:35.851Z,2.75
2022-08-12T11:47:09.400Z,3.00
2022-08-12T11:49:40.339Z,4.07
2022-08-12T11:52:17.371Z,3.85
2022-08-12T11:55:05.628Z,2.67
2022-08-12T11:58:09.538Z,3.10
2022-08-12T12:03:20.029Z,8.10
2022-08-12T12:05:51.174Z,4.07
2022-08-12T12:08:37.289Z,5.32
2022-08-12T12:11:12.463Z,4.90
2022-08-12T12:14:08.581Z,4.38
2022-08-12T12:16:33.554Z,5.13
2022-08-12T12:19:06.528Z,5.50
2022-08-12T12:21:47.323Z,4.15
2022-08-12T12:24:21.736Z,3.67
2022-08-12T12:27:00.635Z,4.03
2022-08-12T12:30:19.273Z,4.30
2022-08-12T12:32:28.899Z,3.60
2022-08-12T12:35:14.099Z,5.40
2022-08-12T12:38:12.512Z,2.40
2022-08-12T12:40:50.275Z,4.65
2022-08-12T12:43:28.756Z,3.65
2022-08-12T12:46:11.522Z,3.10
2022-08-12T12:48:44.509Z,5.30
2022-08-12T12:51:51.753Z,9.57
2022-08-12T12:54:18.866Z,5.13
2022-08-12T12:59:55.398Z,2.47
2022-08-12T13:02:42.274Z,7.07
2022-08-12T13:05:13.943Z,3.83
2022-08-12T13:07:49.032Z,3.85
2022-08-12T13:10:30.621Z,5.20
2022-08-12T13:13:09.605Z,7.57
2022-08-12T13:15:59.217Z,5.72
2022-08-12T13:18:40.039Z,4.28
2022-08-12T13:21:15.751Z,5.93
2022-08-12T13:24:10.254Z,6.38
2022-08-12T13:26:41.134Z,4.88
2022-08-12T13:29:11.568Z,5.43
2022-08-12T13:32:19.412Z,3.33
2022-08-12T13:34:40.620Z,5.07
2022-08-12T13:37:16.635Z,3.15
2022-08-12T13:39:46.241Z,3.13
2022-08-12T13:42:16.893Z,2.63
2022-08-12T13:44:47.397Z,4.45
2022-08-12T13:47:25.075Z,3.03
2022-08-12T13:49:56.162Z,4.20
2022-08-12T13:52:31.212Z,7.25
2022-08-12T13:55:00.133Z,3.55
2022-08-12T13:57:47.240Z,5.60
2022-08-12T14:00:20.480Z,4.40
2022-08-12T14:03:05.927Z,4.23
2022-08-12T14:05:39.197Z,6.22
2022-08-12T14:08:21.325Z,5.28
2022-08-12T14:10:57.127Z,3.20
2022-08-12T14:14:03.169Z,3.97
2022-08-12T14:16:37.809Z,5.90
2022-08-12T14:19:21.942Z,4.40
2022-08-12T14:22:01.139Z,3.72
2022-08-12T14:24:40.389Z,4.28
2022-08-12T14:27:12.210Z,3.53
2022-08-12T14:30:05.107Z,2.53
2022-08-12T14:32:45.372Z,4.18
2022-08-12T14:35:16.920Z,3.58
2022-08-12T14:37:57.062Z,5.07
2022-08-12T14:40:31.395Z,3.83
2022-08-12T14:43:02.160Z,5.97
2022-08-12T14:45:47.063Z,4.78
2022-08-12T14:48:24.394Z,2.00
2022-08-12T14:52:07.831Z,3.42
2022-08-12T14:56:58.010Z,2.10
2022-08-12T14:59:57.839Z,2.72
2022-08-12T15:02:32.446Z,3.20
2022-08-12T15:05:08.244Z,1.85
2022-08-12T15:07:48.903Z,3.50
2022-08-12T15:13:26.093Z,2.83
2022-08-12T15:15:56.986Z,3.55
2022-08-12T15:18:27.997Z,2.67
2022-08-12T15:21:11.128Z,3.40
2022-08-12T15:23:45.479Z,5.55
2022-08-12T15:26:32.803Z,5.67
2022-08-12T15:29:10.459Z,5.28
2022-08-12T15:32:00.154Z,3.90
2022-08-12T15:34:36.595Z,3.92
2022-08-12T15:37:09.267Z,5.43
2022-08-12T15:39:40.811Z,2.78
2022-08-12T15:42:34.178Z,2.83
2022-08-12T15:45:08.717Z,3.95
2022-08-12T15:47:49.613Z,5.07
2022-08-12T15:50:26.410Z,6.03
2022-08-12T15:52:59.285Z,3.97
2022-08-12T15:55:45.826Z,3.50
2022-08-12T15:58:17.913Z,3.67
2022-08-12T16:00:53.551Z,6.93
2022-08-12T16:04:00.083Z,3.53
2022-08-12T16:07:00.675Z,6.78
2022-08-12T16:09:56.521Z,5.22
2022-08-12T16:12:12.032Z,4.05
2022-08-12T16:14:43.214Z,5.07
2022-08-12T16:17:16.995Z,4.45
2022-08-12T16:20:05.923Z,4.18
2022-08-12T16:22:36.529Z,5.10
2022-08-12T16:25:12.391Z,4.13
2022-08-12T16:27:52.418Z,4.93
2022-08-12T16:30:31.319Z,5.45
2022-08-12T16:33:09.586Z,4.55
2022-08-12T16:35:55.563Z,6.15
2022-08-12T16:38:28.985Z,3.75
2022-08-12T16:40:59.336Z,5.20
2022-08-12T16:43:50.439Z,6.45
2022-08-12T16:46:33.566Z,3.95
2022-08-12T16:49:13.528Z,5.30
2022-08-12T16:51:47.689Z,6.28
2022-08-12T16:54:21.085Z,5.23
2022-08-12T16:56:58.541Z,4.55
2022-08-12T16:59:52.728Z,3.42
2022-08-12T17:02:31.240Z,7.97
2022-08-12T17:05:10.411Z,6.25
2022-08-12T17:07:49.449Z,4.75
2022-08-12T17:10:35.928Z,8.73
2022-08-12T17:13:10.686Z,5.18
2022-08-12T17:16:04.612Z,12.30
2022-08-12T17:18:43.373Z,5.88
2022-08-12T17:21:40.114Z,6.15
2022-08-12T17:24:37.284Z,5.38
2022-08-12T17:27:16.246Z,5.38
2022-08-12T17:30:02.319Z,6.88
2022-08-12T17:32:37.997Z,7.28
2022-08-12T17:35:30.049Z,6.80
2022-08-12T17:38:15.613Z,9.35
2022-08-12T17:40:51.141Z,9.18
2022-08-12T17:43:57.797Z,7.28
2022-08-12T17:46:33.320Z,8.98
2022-08-12T17:49:06.839Z,10.70
2022-08-12T17:52:02.547Z,5.47
2022-08-12T17:54:40.550Z,6.68
2022-08-12T17:57:17.177Z,6.05
2022-08-12T17:59:49.426Z,9.13
2022-08-12T18:02:25.522Z,7.70
2022-08-12T18:05:05.262Z,5.90
2022-08-12T18:07:41.083Z,8.80
2022-08-12T18:12:54.540Z,9.40
2022-08-12T18:15:26.590Z,7.32
2022-08-12T18:18:17.362Z,9.30
2022-08-12T18:20:52.833Z,10.90
2022-08-12T18:23:23.716Z,5.78
2022-08-12T18:26:17.895Z,7.65
2022-08-12T18:28:50.631Z,5.88
2022-08-12T18:31:44.737Z,7.57
2022-08-12T18:37:41.193Z,5.57
2022-08-12T18:40:24.423Z,9.20
2022-08-12T18:42:59.355Z,9.40
2022-08-12T18:45:46.586Z,6.13
2022-08-12T18:48:17.713Z,10.80
2022-08-12T18:50:50.130Z,9.50
2022-08-12T18:54:06.120Z,10.45
2022-08-12T18:56:33.736Z,8.90
2022-08-12T18:59:05.944Z,9.20
2022-08-12T19:02:22.258Z,16.33
2022-08-12T19:04:32.465Z,17.20
2022-08-12T19:07:04.292Z,19.88
2022-08-12T19:09:57.595Z,25.67
2022-08-12T19:12:57.025Z,35.05
2022-08-12T19:15:34.477Z,33.97
2022-08-12T19:18:13.917Z,22.23
2022-08-12T19:20:47.821Z,21.90
2022-08-12T19:26:01.926Z,18.55
2022-08-12T19:28:36.233Z,17.52
2022-08-12T19:31:58.209Z,15.18
2022-08-12T19:38:04.173Z,22.73
2022-08-12T19:40:38.970Z,18.85
2022-08-12T19:43:20.206Z,19.63
2022-08-12T19:45:56.765Z,27.63
2022-08-12T19:48:40.180Z,23.10
2022-08-12T19:51:22.769Z,22.30
2022-08-12T19:53:58.613Z,20.30
2022-08-12T19:56:35.289Z,22.30
2022-08-12T19:59:23.045Z,24.85
2022-08-12T20:02:02.636Z,21.88
2022-08-12T20:04:40.532Z,19.33
2022-08-12T20:07:24.044Z,30.30
2022-08-12T20:09:54.182Z,28.52
2022-08-12T20:12:48.789Z,15.32
2022-08-12T20:17:57.350Z,15.05
2022-08-12T20:20:31.949Z,15.13
2022-08-12T20:23:08.749Z,13.55
2022-08-12T20:25:51.831Z,11.05
2022-08-12T20:28:21.805Z,15.18
2022-08-12T20:31:00.827Z,20.40
2022-08-12T20:33:32.837Z,13.98
2022-08-12T20:36:42.457Z,13.48
2022-08-12T20:39:35.884Z,21.88
2022-08-12T20:42:24.649Z,18.05
2022-08-12T20:45:01.338Z,17.67
2022-08-12T20:47:46.392Z,13.43
2022-08-12T20:50:20.969Z,16.40
2022-08-12T20:52:51.904Z,18.92
2022-08-12T20:55:23.229Z,15.25
2022-08-12T20:58:19.094Z,13.40
2022-08-12T21:00:48.566Z,15.93
2022-08-12T21:03:37.001Z,9.68
2022-08-12T21:06:43.380Z,10.85
2022-08-12T21:09:18.431Z,7.65
2022-08-12T21:11:54.142Z,7.45
2022-08-12T21:14:39.693Z,8.95
2022-08-12T21:17:34.026Z,8.07
2022-08-12T21:20:15.713Z,5.32
2022-08-12T21:22:53.860Z,7.10
2022-08-12T21:25:22.501Z,7.90
2022-08-12T21:27:59.476Z,7.72
2022-08-12T21:30:34.215Z,7.50
2022-08-12T21:33:14.857Z,10.95
2022-08-12T21:35:45.907Z,8.05
2022-08-12T21:38:22.537Z,8.25
2022-08-12T21:40:56.083Z,11.75
2022-08-12T21:43:44.751Z,11.18
2022-08-12T21:46:34.485Z,7.70
2022-08-12T21:49:05.484Z,6.65
2022-08-12T21:51:49.939Z,9.63
2022-08-12T21:54:31.867Z,11.45
2022-08-12T21:57:04.701Z,14.48
2022-08-12T21:59:45.058Z,9.95
2022-08-12T22:02:36.035Z,13.52
2022-08-12T22:05:28.977Z,10.30
2022-08-12T22:07:58.960Z,9.60
2022-08-12T22:10:29.463Z,9.15
2022-08-12T22:13:00.997Z,12.32
2022-08-12T22:15:31.441Z,8.20
2022-08-12T22:18:13.957Z,10.32
2022-08-12T22:20:49.528Z,7.63
2022-08-12T22:23:51.273Z,7.82
2022-08-12T22:26:29.413Z,12.48
2022-08-12T22:29:27.988Z,14.85
2022-08-12T22:31:58.470Z,15.05
2022-08-12T22:34:33.339Z,9.70
2022-08-12T22:37:03.629Z,13.43
2022-08-12T22:39:33.581Z,12.23
2022-08-12T22:42:30.575Z,15.43
2022-08-12T22:45:23.394Z,9.60
2022-08-12T22:47:54.872Z,17.02
2022-08-12T22:50:28.881Z,15.48
2022-08-12T22:53:16.979Z,12.00
2022-08-12T22:55:59.922Z,11.63
2022-08-12T22:58:40.423Z,13.77
2022-08-12T23:01:13.844Z,20.13
2022-08-12T23:04:07.890Z,14.98
2022-08-12T23:06:43.262Z,15.55
2022-08-12T23:09:13.589Z,10.23
2022-08-12T23:11:50.804Z,9.93
2022-08-12T23:14:21.005Z,9.98
2022-08-12T23:16:58.812Z,8.40
2022-08-12T23:19:38.146Z,9.27
2022-08-12T23:24:55.869Z,13.00
2022-08-12T23:27:52.193Z,10.35
2022-08-12T23:30:31.101Z,11.77
2022-08-12T23:33:20.045Z,15.30
2022-08-12T23:36:03.481Z,8.95
2022-08-12T23:38:42.223Z,8.25
2022-08-12T23:41:24.000Z,9.32
2022-08-12T23:43:54.328Z,9.57
2022-08-12T23:46:27.205Z,10.82
2022-08-12T23:49:02.150Z,13.50
2022-08-12T23:51:48.149Z,8.90
2022-08-12T23:54:58.001Z,10.45
2022-08-12T23:58:17.734Z,7.65
